sensor_id;sensor_type;location;lat;lon;timestamp;P1;durP1;ratioP1;P2;durP2;ratioP2
54983;SDS011;40884;53.562;9.940;2022-08-01T00:00:10;12.43;;;11.40;;
54983;SDS011;40884;53.562;9.940;2022-08-01T00:01:12;12.90;;;11.70;;
54983;SDS011;40884;53.562;9.940;2022-08-01T00:02:12;13.17;;;11.87;;
54983;SDS011;40884;53.562;9.940;2022-08-01T00:03:12;12.97;;;11.77;;
54983;SDS011;40884;53.562;9.940;2022-08-01T00:04:12;13.27;;;12.03;;
54983;SDS011;40884;53.562;9.940;2022-08-01T00:05:12;13.83;;;12.57;;
54983;SDS011;40884;53.562;9.940;2022-08-01T00:06:12;13.37;;;12.27;;
54983;SDS011;40884;53.562;9.940;2022-08-01T00:07:12;13.47;;;12.20;;
54983;SDS011;40884;53.562;9.940;2022-08-01T00:08:12;13.30;;;12.17;;
54983;SDS011;40884;53.562;9.940;2022-08-01T00:09:13;14.00;;;12.60;;
54983;SDS011;40884;53.562;9.940;2022-08-01T00:10:13;12.10;;;11.10;;
54983;SDS011;40884;53.562;9.940;2022-08-01T00:11:14;13.17;;;11.03;;
54983;SDS011;40884;53.562;9.940;2022-08-01T00:12:14;13.13;;;11.93;;
54983;SDS011;40884;53.562;9.940;2022-08-01T00:13:14;12.27;;;11.17;;
54983;SDS011;40884;53.562;9.940;2022-08-01T00:14:15;11.93;;;10.93;;
54983;SDS011;40884;53.562;9.940;2022-08-01T00:15:15;12.90;;;11.70;;
54983;SDS011;40884;53.562;9.940;2022-08-01T00:16:16;12.40;;;11.30;;
54983;SDS011;40884;53.562;9.940;2022-08-01T00:17:16;13.13;;;11.83;;
54983;SDS011;40884;53.562;9.940;2022-08-01T00:18:16;12.30;;;11.30;;
54983;SDS011;40884;53.562;9.940;2022-08-01T00:19:16;12.07;;;11.07;;
54983;SDS011;40884;53.562;9.940;2022-08-01T00:20:16;12.20;;;11.10;;
54983;SDS011;40884;53.562;9.940;2022-08-01T00:21:17;13.03;;;11.80;;
54983;SDS011;40884;53.562;9.940;2022-08-01T00:22:17;13.00;;;11.80;;
54983;SDS011;40884;53.562;9.940;2022-08-01T00:23:17;12.87;;;11.67;;
54983;SDS011;40884;53.562;9.940;2022-08-01T00:24:17;12.60;;;11.40;;
54983;SDS011;40884;53.562;9.940;2022-08-01T00:25:17;12.60;;;11.40;;
54983;SDS011;40884;53.562;9.940;2022-08-01T00:26:17;12.53;;;11.43;;
54983;SDS011;40884;53.562;9.940;2022-08-01T00:27:18;12.33;;;11.30;;
54983;SDS011;40884;53.562;9.940;2022-08-01T00:28:18;12.07;;;11.07;;
54983;SDS011;40884;53.562;9.940;2022-08-01T00:29:18;13.40;;;12.20;;
54983;SDS011;40884;53.562;9.940;2022-08-01T00:30:18;11.47;;;10.47;;
54983;SDS011;40884;53.562;9.940;2022-08-01T00:31:18;12.73;;;11.53;;
54983;SDS011;40884;53.562;9.940;2022-08-01T00:32:18;12.93;;;11.63;;
54983;SDS011;40884;53.562;9.940;2022-08-01T00:33:18;12.57;;;11.47;;
54983;SDS011;40884;53.562;9.940;2022-08-01T00:34:18;11.70;;;10.70;;
54983;SDS011;40884;53.562;9.940;2022-08-01T00:35:19;11.90;;;10.80;;
54983;SDS011;40884;53.562;9.940;2022-08-01T00:36:19;12.30;;;11.20;;
54983;SDS011;40884;53.562;9.940;2022-08-01T00:37:19;13.13;;;11.93;;
54983;SDS011;40884;53.562;9.940;2022-08-01T00:38:19;11.33;;;10.33;;
54983;SDS011;40884;53.562;9.940;2022-08-01T00:39:19;12.97;;;11.67;;
54983;SDS011;40884;53.562;9.940;2022-08-01T00:40:19;11.73;;;10.67;;
54983;SDS011;40884;53.562;9.940;2022-08-01T00:41:19;12.50;;;11.20;;
54983;SDS011;40884;53.562;9.940;2022-08-01T00:42:19;12.67;;;11.00;;
54983;SDS011;40884;53.562;9.940;2022-08-01T00:43:20;12.20;;;11.10;;
54983;SDS011;40884;53.562;9.940;2022-08-01T00:44:20;12.33;;;11.23;;
54983;SDS011;40884;53.562;9.940;2022-08-01T00:45:20;11.17;;;10.17;;
54983;SDS011;40884;53.562;9.940;2022-08-01T00:46:20;12.23;;;10.93;;
54983;SDS011;40884;53.562;9.940;2022-08-01T00:47:20;12.53;;;10.40;;
54983;SDS011;40884;53.562;9.940;2022-08-01T00:48:20;11.07;;;9.97;;
54983;SDS011;40884;53.562;9.940;2022-08-01T00:49:20;11.37;;;9.97;;
54983;SDS011;40884;53.562;9.940;2022-08-01T00:50:21;10.23;;;9.23;;
54983;SDS011;40884;53.562;9.940;2022-08-01T00:51:22;10.10;;;9.20;;
54983;SDS011;40884;53.562;9.940;2022-08-01T00:52:22;8.93;;;8.13;;
54983;SDS011;40884;53.562;9.940;2022-08-01T00:53:22;9.17;;;8.27;;
54983;SDS011;40884;53.562;9.940;2022-08-01T00:54:23;9.53;;;8.60;;
54983;SDS011;40884;53.562;9.940;2022-08-01T00:55:23;8.80;;;8.00;;
54983;SDS011;40884;53.562;9.940;2022-08-01T00:56:24;9.10;;;8.30;;
54983;SDS011;40884;53.562;9.940;2022-08-01T00:57:25;8.40;;;7.63;;
54983;SDS011;40884;53.562;9.940;2022-08-01T00:58:25;9.10;;;8.30;;
54983;SDS011;40884;53.562;9.940;2022-08-01T00:59:25;8.97;;;8.07;;
54983;SDS011;40884;53.562;9.940;2022-08-01T01:00:26;8.70;;;7.90;;
54983;SDS011;40884;53.562;9.940;2022-08-01T01:01:26;9.00;;;8.30;;
54983;SDS011;40884;53.562;9.940;2022-08-01T01:02:26;9.30;;;8.40;;
54983;SDS011;40884;53.562;9.940;2022-08-01T01:03:27;9.10;;;8.27;;
54983;SDS011;40884;53.562;9.940;2022-08-01T01:04:27;10.63;;;9.23;;
54983;SDS011;40884;53.562;9.940;2022-08-01T01:05:27;10.33;;;9.33;;
54983;SDS011;40884;53.562;9.940;2022-08-01T01:06:31;9.83;;;8.93;;
54983;SDS011;40884;53.562;9.940;2022-08-01T01:07:48;9.70;;;8.80;;
54983;SDS011;40884;53.562;9.940;2022-08-01T01:09:10;10.27;;;9.27;;
54983;SDS011;40884;53.562;9.940;2022-08-01T01:10:14;9.87;;;8.83;;
54983;SDS011;40884;53.562;9.940;2022-08-01T01:11:18;11.20;;;10.10;;
54983;SDS011;40884;53.562;9.940;2022-08-01T01:12:30;10.40;;;9.50;;
54983;SDS011;40884;53.562;9.940;2022-08-01T01:13:34;11.43;;;10.27;;
54983;SDS011;40884;53.562;9.940;2022-08-01T01:14:51;11.47;;;10.23;;
54983;SDS011;40884;53.562;9.940;2022-08-01T01:15:57;11.10;;;10.03;;
54983;SDS011;40884;53.562;9.940;2022-08-01T01:16:58;11.30;;;10.20;;
54983;SDS011;40884;53.562;9.940;2022-08-01T01:18:07;11.87;;;10.60;;
54983;SDS011;40884;53.562;9.940;2022-08-01T01:19:11;13.10;;;10.60;;
54983;SDS011;40884;53.562;9.940;2022-08-01T01:20:13;11.00;;;10.10;;
54983;SDS011;40884;53.562;9.940;2022-08-01T01:25:54;11.80;;;10.73;;
54983;SDS011;40884;53.562;9.940;2022-08-01T01:27:10;10.47;;;9.47;;
54983;SDS011;40884;53.562;9.940;2022-08-01T01:29:28;11.47;;;10.37;;
54983;SDS011;40884;53.562;9.940;2022-08-01T01:30:30;11.93;;;10.70;;
54983;SDS011;40884;53.562;9.940;2022-08-01T01:31:32;11.00;;;9.80;;
54983;SDS011;40884;53.562;9.940;2022-08-01T01:32:33;12.37;;;11.03;;
54983;SDS011;40884;53.562;9.940;2022-08-01T01:33:35;11.30;;;10.30;;
54983;SDS011;40884;53.562;9.940;2022-08-01T01:34:37;12.97;;;11.33;;
54983;SDS011;40884;53.562;9.940;2022-08-01T01:35:38;11.53;;;10.43;;
54983;SDS011;40884;53.562;9.940;2022-08-01T01:36:41;11.70;;;10.53;;
54983;SDS011;40884;53.562;9.940;2022-08-01T01:37:42;12.17;;;10.87;;
54983;SDS011;40884;53.562;9.940;2022-08-01T01:38:44;12.17;;;10.90;;
54983;SDS011;40884;53.562;9.940;2022-08-01T01:39:45;13.07;;;11.80;;
54983;SDS011;40884;53.562;9.940;2022-08-01T01:40:46;11.80;;;10.57;;
54983;SDS011;40884;53.562;9.940;2022-08-01T01:41:47;11.87;;;10.67;;
54983;SDS011;40884;53.562;9.940;2022-08-01T01:42:48;12.80;;;11.60;;
54983;SDS011;40884;53.562;9.940;2022-08-01T01:43:49;12.27;;;11.17;;
54983;SDS011;40884;53.562;9.940;2022-08-01T01:44:49;13.53;;;12.13;;
54983;SDS011;40884;53.562;9.940;2022-08-01T01:45:50;13.17;;;11.87;;
54983;SDS011;40884;53.562;9.940;2022-08-01T01:46:50;12.57;;;11.30;;
54983;SDS011;40884;53.562;9.940;2022-08-01T01:47:51;12.97;;;11.03;;
54983;SDS011;40884;53.562;9.940;2022-08-01T01:48:53;14.13;;;12.30;;
54983;SDS011;40884;53.562;9.940;2022-08-01T01:49:53;11.90;;;10.87;;
54983;SDS011;40884;53.562;9.940;2022-08-01T01:50:55;12.90;;;11.60;;
54983;SDS011;40884;53.562;9.940;2022-08-01T01:51:56;13.17;;;11.87;;
54983;SDS011;40884;53.562;9.940;2022-08-01T01:52:57;12.33;;;11.13;;
54983;SDS011;40884;53.562;9.940;2022-08-01T01:53:58;13.43;;;12.07;;
54983;SDS011;40884;53.562;9.940;2022-08-01T01:54:59;13.47;;;12.07;;
54983;SDS011;40884;53.562;9.940;2022-08-01T01:56:01;13.43;;;12.00;;
54983;SDS011;40884;53.562;9.940;2022-08-01T01:57:02;12.23;;;11.03;;
54983;SDS011;40884;53.562;9.940;2022-08-01T01:58:03;14.13;;;12.73;;
54983;SDS011;40884;53.562;9.940;2022-08-01T01:59:03;13.27;;;11.83;;
54983;SDS011;40884;53.562;9.940;2022-08-01T02:00:04;12.27;;;10.97;;
54983;SDS011;40884;53.562;9.940;2022-08-01T02:01:05;12.37;;;11.27;;
54983;SDS011;40884;53.562;9.940;2022-08-01T02:02:06;13.73;;;12.40;;
54983;SDS011;40884;53.562;9.940;2022-08-01T02:03:07;12.37;;;11.00;;
54983;SDS011;40884;53.562;9.940;2022-08-01T02:04:08;12.20;;;11.00;;
54983;SDS011;40884;53.562;9.940;2022-08-01T02:05:10;13.47;;;11.80;;
54983;SDS011;40884;53.562;9.940;2022-08-01T02:06:11;13.73;;;12.30;;
54983;SDS011;40884;53.562;9.940;2022-08-01T02:07:14;12.80;;;11.50;;
54983;SDS011;40884;53.562;9.940;2022-08-01T02:08:15;12.17;;;11.00;;
54983;SDS011;40884;53.562;9.940;2022-08-01T02:09:16;9.83;;;8.90;;
54983;SDS011;40884;53.562;9.940;2022-08-01T02:10:17;11.07;;;10.03;;
54983;SDS011;40884;53.562;9.940;2022-08-01T02:11:18;11.20;;;10.20;;
54983;SDS011;40884;53.562;9.940;2022-08-01T02:12:19;11.30;;;10.20;;
54983;SDS011;40884;53.562;9.940;2022-08-01T02:13:20;11.17;;;10.07;;
54983;SDS011;40884;53.562;9.940;2022-08-01T02:14:20;11.13;;;10.03;;
54983;SDS011;40884;53.562;9.940;2022-08-01T02:15:22;10.47;;;9.57;;
54983;SDS011;40884;53.562;9.940;2022-08-01T02:16:23;10.77;;;9.37;;
54983;SDS011;40884;53.562;9.940;2022-08-01T02:17:24;10.03;;;9.10;;
54983;SDS011;40884;53.562;9.940;2022-08-01T02:18:24;10.67;;;9.57;;
54983;SDS011;40884;53.562;9.940;2022-08-01T02:19:24;11.77;;;9.87;;
54983;SDS011;40884;53.562;9.940;2022-08-01T02:20:26;10.40;;;9.30;;
54983;SDS011;40884;53.562;9.940;2022-08-01T02:21:28;10.93;;;9.83;;
54983;SDS011;40884;53.562;9.940;2022-08-01T02:22:30;12.50;;;9.97;;
54983;SDS011;40884;53.562;9.940;2022-08-01T02:23:32;10.77;;;9.77;;
54983;SDS011;40884;53.562;9.940;2022-08-01T02:24:38;11.27;;;9.03;;
54983;SDS011;40884;53.562;9.940;2022-08-01T02:25:47;10.33;;;9.27;;
54983;SDS011;40884;53.562;9.940;2022-08-01T02:26:49;10.70;;;9.60;;
54983;SDS011;40884;53.562;9.940;2022-08-01T02:27:58;10.20;;;9.20;;
54983;SDS011;40884;53.562;9.940;2022-08-01T02:28:59;10.27;;;9.17;;
54983;SDS011;40884;53.562;9.940;2022-08-01T02:30:01;10.87;;;9.47;;
54983;SDS011;40884;53.562;9.940;2022-08-01T02:31:06;10.63;;;9.53;;
54983;SDS011;40884;53.562;9.940;2022-08-01T02:32:06;10.07;;;9.17;;
54983;SDS011;40884;53.562;9.940;2022-08-01T02:33:09;10.23;;;9.23;;
54983;SDS011;40884;53.562;9.940;2022-08-01T02:34:12;10.57;;;9.43;;
54983;SDS011;40884;53.562;9.940;2022-08-01T02:35:18;10.30;;;9.13;;
54983;SDS011;40884;53.562;9.940;2022-08-01T02:36:19;11.07;;;8.97;;
54983;SDS011;40884;53.562;9.940;2022-08-01T02:37:20;10.07;;;9.07;;
54983;SDS011;40884;53.562;9.940;2022-08-01T02:38:22;9.90;;;8.20;;
54983;SDS011;40884;53.562;9.940;2022-08-01T02:39:23;10.63;;;8.50;;
54983;SDS011;40884;53.562;9.940;2022-08-01T02:40:29;9.90;;;7.60;;
54983;SDS011;40884;53.562;9.940;2022-08-01T02:41:30;9.97;;;9.07;;
54983;SDS011;40884;53.562;9.940;2022-08-01T02:42:33;8.67;;;7.73;;
54983;SDS011;40884;53.562;9.940;2022-08-01T02:43:36;9.90;;;9.00;;
54983;SDS011;40884;53.562;9.940;2022-08-01T02:44:37;9.37;;;8.23;;
54983;SDS011;40884;53.562;9.940;2022-08-01T02:45:41;10.37;;;8.80;;
54983;SDS011;40884;53.562;9.940;2022-08-01T02:46:51;10.40;;;8.60;;
54983;SDS011;40884;53.562;9.940;2022-08-01T02:47:57;8.17;;;7.47;;
54983;SDS011;40884;53.562;9.940;2022-08-01T02:48:59;8.63;;;7.80;;
54983;SDS011;40884;53.562;9.940;2022-08-01T02:50:00;9.67;;;8.67;;
54983;SDS011;40884;53.562;9.940;2022-08-01T02:51:01;8.80;;;8.00;;
54983;SDS011;40884;53.562;9.940;2022-08-01T02:52:04;9.83;;;8.40;;
54983;SDS011;40884;53.562;9.940;2022-08-01T02:53:05;9.07;;;8.17;;
54983;SDS011;40884;53.562;9.940;2022-08-01T02:54:06;9.90;;;8.90;;
54983;SDS011;40884;53.562;9.940;2022-08-01T02:55:07;9.80;;;8.90;;
54983;SDS011;40884;53.562;9.940;2022-08-01T02:56:08;10.60;;;9.17;;
54983;SDS011;40884;53.562;9.940;2022-08-01T02:57:09;9.03;;;8.27;;
54983;SDS011;40884;53.562;9.940;2022-08-01T02:58:10;11.80;;;9.87;;
54983;SDS011;40884;53.562;9.940;2022-08-01T02:59:12;12.10;;;9.40;;
54983;SDS011;40884;53.562;9.940;2022-08-01T03:00:14;10.33;;;9.30;;
54983;SDS011;40884;53.562;9.940;2022-08-01T03:01:15;10.50;;;9.37;;
54983;SDS011;40884;53.562;9.940;2022-08-01T03:02:16;10.73;;;9.73;;
54983;SDS011;40884;53.562;9.940;2022-08-01T03:03:17;9.80;;;8.80;;
54983;SDS011;40884;53.562;9.940;2022-08-01T03:04:17;12.03;;;9.10;;
54983;SDS011;40884;53.562;9.940;2022-08-01T03:05:18;10.80;;;9.50;;
54983;SDS011;40884;53.562;9.940;2022-08-01T03:06:19;13.77;;;9.17;;
54983;SDS011;40884;53.562;9.940;2022-08-01T03:07:19;9.97;;;9.03;;
54983;SDS011;40884;53.562;9.940;2022-08-01T03:08:20;9.13;;;8.30;;
54983;SDS011;40884;53.562;9.940;2022-08-01T03:09:21;9.37;;;8.50;;
54983;SDS011;40884;53.562;9.940;2022-08-01T03:10:22;9.87;;;8.80;;
54983;SDS011;40884;53.562;9.940;2022-08-01T03:11:24;9.33;;;8.40;;
54983;SDS011;40884;53.562;9.940;2022-08-01T03:12:26;9.70;;;8.77;;
54983;SDS011;40884;53.562;9.940;2022-08-01T03:13:27;10.30;;;8.20;;
54983;SDS011;40884;53.562;9.940;2022-08-01T03:14:29;9.17;;;8.33;;
54983;SDS011;40884;53.562;9.940;2022-08-01T03:15:31;10.53;;;7.50;;
54983;SDS011;40884;53.562;9.940;2022-08-01T03:16:31;9.03;;;7.97;;
54983;SDS011;40884;53.562;9.940;2022-08-01T03:17:33;8.67;;;7.77;;
54983;SDS011;40884;53.562;9.940;2022-08-01T03:18:34;8.90;;;8.13;;
54983;SDS011;40884;53.562;9.940;2022-08-01T03:19:35;9.17;;;8.33;;
54983;SDS011;40884;53.562;9.940;2022-08-01T03:20:36;8.40;;;7.70;;
54983;SDS011;40884;53.562;9.940;2022-08-01T03:21:36;9.93;;;8.00;;
54983;SDS011;40884;53.562;9.940;2022-08-01T03:22:37;9.53;;;8.23;;
54983;SDS011;40884;53.562;9.940;2022-08-01T03:23:38;9.20;;;8.37;;
54983;SDS011;40884;53.562;9.940;2022-08-01T03:24:40;10.03;;;8.10;;
54983;SDS011;40884;53.562;9.940;2022-08-01T03:25:41;9.70;;;8.40;;
54983;SDS011;40884;53.562;9.940;2022-08-01T03:26:43;8.47;;;7.60;;
54983;SDS011;40884;53.562;9.940;2022-08-01T03:27:45;9.70;;;8.63;;
54983;SDS011;40884;53.562;9.940;2022-08-01T03:28:47;8.97;;;8.07;;
54983;SDS011;40884;53.562;9.940;2022-08-01T03:29:48;9.60;;;8.70;;
54983;SDS011;40884;53.562;9.940;2022-08-01T03:30:49;9.30;;;8.50;;
54983;SDS011;40884;53.562;9.940;2022-08-01T03:31:50;9.20;;;8.30;;
54983;SDS011;40884;53.562;9.940;2022-08-01T03:32:50;9.47;;;8.57;;
54983;SDS011;40884;53.562;9.940;2022-08-01T03:33:50;9.77;;;8.87;;
54983;SDS011;40884;53.562;9.940;2022-08-01T03:34:51;9.57;;;8.57;;
54983;SDS011;40884;53.562;9.940;2022-08-01T03:35:52;9.33;;;8.43;;
54983;SDS011;40884;53.562;9.940;2022-08-01T03:36:59;11.77;;;8.90;;
54983;SDS011;40884;53.562;9.940;2022-08-01T03:38:00;9.30;;;8.30;;
54983;SDS011;40884;53.562;9.940;2022-08-01T03:39:02;8.90;;;8.00;;
54983;SDS011;40884;53.562;9.940;2022-08-01T03:40:04;9.17;;;8.13;;
54983;SDS011;40884;53.562;9.940;2022-08-01T03:41:09;9.17;;;8.27;;
54983;SDS011;40884;53.562;9.940;2022-08-01T03:42:18;9.17;;;7.57;;
54983;SDS011;40884;53.562;9.940;2022-08-01T03:43:19;7.70;;;7.00;;
54983;SDS011;40884;53.562;9.940;2022-08-01T03:44:22;9.37;;;7.23;;
54983;SDS011;40884;53.562;9.940;2022-08-01T03:45:27;8.50;;;7.20;;
54983;SDS011;40884;53.562;9.940;2022-08-01T03:46:35;8.57;;;7.40;;
54983;SDS011;40884;53.562;9.940;2022-08-01T03:47:36;9.60;;;7.23;;
54983;SDS011;40884;53.562;9.940;2022-08-01T03:48:38;7.00;;;6.37;;
54983;SDS011;40884;53.562;9.940;2022-08-01T03:49:42;7.17;;;6.43;;
54983;SDS011;40884;53.562;9.940;2022-08-01T03:50:44;8.33;;;6.77;;
54983;SDS011;40884;53.562;9.940;2022-08-01T03:51:46;7.70;;;6.80;;
54983;SDS011;40884;53.562;9.940;2022-08-01T03:52:47;6.63;;;5.90;;
54983;SDS011;40884;53.562;9.940;2022-08-01T03:53:48;6.90;;;5.90;;
54983;SDS011;40884;53.562;9.940;2022-08-01T03:54:50;7.00;;;6.17;;
54983;SDS011;40884;53.562;9.940;2022-08-01T03:55:51;7.00;;;6.30;;
54983;SDS011;40884;53.562;9.940;2022-08-01T03:56:52;7.50;;;6.43;;
54983;SDS011;40884;53.562;9.940;2022-08-01T03:57:53;7.73;;;6.40;;
54983;SDS011;40884;53.562;9.940;2022-08-01T03:58:53;7.00;;;6.13;;
54983;SDS011;40884;53.562;9.940;2022-08-01T03:59:54;8.43;;;6.43;;
54983;SDS011;40884;53.562;9.940;2022-08-01T04:00:55;6.47;;;5.87;;
54983;SDS011;40884;53.562;9.940;2022-08-01T04:01:55;9.40;;;6.73;;
54983;SDS011;40884;53.562;9.940;2022-08-01T04:02:55;7.33;;;6.63;;
54983;SDS011;40884;53.562;9.940;2022-08-01T04:03:55;6.90;;;6.00;;
54983;SDS011;40884;53.562;9.940;2022-08-01T04:04:58;7.13;;;6.53;;
54983;SDS011;40884;53.562;9.940;2022-08-01T04:05:58;8.50;;;6.33;;
54983;SDS011;40884;53.562;9.940;2022-08-01T04:06:59;11.17;;;6.77;;
54983;SDS011;40884;53.562;9.940;2022-08-01T04:07:59;6.73;;;6.13;;
54983;SDS011;40884;53.562;9.940;2022-08-01T04:08:59;6.47;;;5.87;;
54983;SDS011;40884;53.562;9.940;2022-08-01T04:09:59;8.87;;;5.90;;
54983;SDS011;40884;53.562;9.940;2022-08-01T04:10:59;6.03;;;5.43;;
54983;SDS011;40884;53.562;9.940;2022-08-01T04:11:59;8.10;;;5.90;;
54983;SDS011;40884;53.562;9.940;2022-08-01T04:13:00;6.23;;;5.63;;
54983;SDS011;40884;53.562;9.940;2022-08-01T04:14:00;7.27;;;6.17;;
54983;SDS011;40884;53.562;9.940;2022-08-01T04:15:00;6.63;;;5.97;;
54983;SDS011;40884;53.562;9.940;2022-08-01T04:16:00;5.83;;;5.00;;
54983;SDS011;40884;53.562;9.940;2022-08-01T04:17:01;7.13;;;5.50;;
54983;SDS011;40884;53.562;9.940;2022-08-01T04:18:01;5.47;;;4.97;;
54983;SDS011;40884;53.562;9.940;2022-08-01T04:19:01;5.07;;;4.57;;
54983;SDS011;40884;53.562;9.940;2022-08-01T04:20:01;5.53;;;4.83;;
54983;SDS011;40884;53.562;9.940;2022-08-01T04:21:01;7.30;;;5.13;;
54983;SDS011;40884;53.562;9.940;2022-08-01T04:22:02;6.60;;;4.80;;
54983;SDS011;40884;53.562;9.940;2022-08-01T04:23:03;5.40;;;4.77;;
54983;SDS011;40884;53.562;9.940;2022-08-01T04:24:05;5.10;;;4.60;;
54983;SDS011;40884;53.562;9.940;2022-08-01T04:25:09;5.17;;;4.50;;
54983;SDS011;40884;53.562;9.940;2022-08-01T04:26:10;5.70;;;4.70;;
54983;SDS011;40884;53.562;9.940;2022-08-01T04:27:13;6.43;;;4.40;;
54983;SDS011;40884;53.562;9.940;2022-08-01T04:28:15;5.20;;;4.00;;
54983;SDS011;40884;53.562;9.940;2022-08-01T04:29:15;4.57;;;4.00;;
54983;SDS011;40884;53.562;9.940;2022-08-01T04:30:17;5.10;;;4.60;;
54983;SDS011;40884;53.562;9.940;2022-08-01T04:31:20;4.53;;;4.10;;
54983;SDS011;40884;53.562;9.940;2022-08-01T04:32:22;7.13;;;4.23;;
54983;SDS011;40884;53.562;9.940;2022-08-01T04:33:23;5.07;;;3.97;;
54983;SDS011;40884;53.562;9.940;2022-08-01T04:34:24;5.23;;;3.60;;
54983;SDS011;40884;53.562;9.940;2022-08-01T04:35:25;4.27;;;3.87;;
54983;SDS011;40884;53.562;9.940;2022-08-01T04:36:26;5.53;;;4.17;;
54983;SDS011;40884;53.562;9.940;2022-08-01T04:37:27;4.13;;;3.80;;
54983;SDS011;40884;53.562;9.940;2022-08-01T04:38:27;6.73;;;3.67;;
54983;SDS011;40884;53.562;9.940;2022-08-01T04:39:28;5.07;;;4.03;;
54983;SDS011;40884;53.562;9.940;2022-08-01T04:40:31;6.50;;;3.60;;
54983;SDS011;40884;53.562;9.940;2022-08-01T04:41:32;4.77;;;3.70;;
54983;SDS011;40884;53.562;9.940;2022-08-01T04:42:33;6.20;;;3.70;;
54983;SDS011;40884;53.562;9.940;2022-08-01T04:43:33;4.97;;;3.70;;
54983;SDS011;40884;53.562;9.940;2022-08-01T04:44:33;5.17;;;3.50;;
54983;SDS011;40884;53.562;9.940;2022-08-01T04:45:34;4.13;;;3.27;;
54983;SDS011;40884;53.562;9.940;2022-08-01T04:46:34;6.30;;;3.80;;
54983;SDS011;40884;53.562;9.940;2022-08-01T04:47:37;3.80;;;3.40;;
54983;SDS011;40884;53.562;9.940;2022-08-01T04:48:39;4.83;;;3.10;;
54983;SDS011;40884;53.562;9.940;2022-08-01T04:49:39;4.00;;;3.27;;
54983;SDS011;40884;53.562;9.940;2022-08-01T04:50:40;3.63;;;3.23;;
54983;SDS011;40884;53.562;9.940;2022-08-01T04:51:49;4.27;;;3.20;;
54983;SDS011;40884;53.562;9.940;2022-08-01T04:52:49;4.13;;;3.27;;
54983;SDS011;40884;53.562;9.940;2022-08-01T04:53:49;4.20;;;3.17;;
54983;SDS011;40884;53.562;9.940;2022-08-01T04:54:49;3.83;;;3.13;;
54983;SDS011;40884;53.562;9.940;2022-08-01T04:55:50;3.87;;;2.67;;
54983;SDS011;40884;53.562;9.940;2022-08-01T04:56:50;4.20;;;2.87;;
54983;SDS011;40884;53.562;9.940;2022-08-01T04:57:50;3.10;;;2.50;;
54983;SDS011;40884;53.562;9.940;2022-08-01T04:58:50;4.40;;;2.70;;
54983;SDS011;40884;53.562;9.940;2022-08-01T04:59:50;4.10;;;2.80;;
54983;SDS011;40884;53.562;9.940;2022-08-01T05:00:51;3.73;;;3.00;;
54983;SDS011;40884;53.562;9.940;2022-08-01T05:01:51;2.87;;;2.57;;
54983;SDS011;40884;53.562;9.940;2022-08-01T05:02:51;4.23;;;2.83;;
54983;SDS011;40884;53.562;9.940;2022-08-01T05:03:51;4.07;;;2.77;;
54983;SDS011;40884;53.562;9.940;2022-08-01T05:04:51;2.80;;;2.40;;
54983;SDS011;40884;53.562;9.940;2022-08-01T05:05:51;2.83;;;2.27;;
54983;SDS011;40884;53.562;9.940;2022-08-01T05:06:51;2.60;;;2.40;;
54983;SDS011;40884;53.562;9.940;2022-08-01T05:07:51;3.13;;;2.60;;
54983;SDS011;40884;53.562;9.940;2022-08-01T05:08:51;3.43;;;2.27;;
54983;SDS011;40884;53.562;9.940;2022-08-01T05:09:52;3.47;;;2.60;;
54983;SDS011;40884;53.562;9.940;2022-08-01T05:10:52;3.13;;;2.40;;
54983;SDS011;40884;53.562;9.940;2022-08-01T05:11:52;2.50;;;2.30;;
54983;SDS011;40884;53.562;9.940;2022-08-01T05:12:52;5.03;;;2.30;;
54983;SDS011;40884;53.562;9.940;2022-08-01T05:13:52;3.13;;;2.47;;
54983;SDS011;40884;53.562;9.940;2022-08-01T05:14:52;2.50;;;2.30;;
54983;SDS011;40884;53.562;9.940;2022-08-01T05:15:52;2.67;;;2.10;;
54983;SDS011;40884;53.562;9.940;2022-08-01T05:16:52;2.63;;;2.43;;
54983;SDS011;40884;53.562;9.940;2022-08-01T05:17:53;2.77;;;2.40;;
54983;SDS011;40884;53.562;9.940;2022-08-01T05:18:53;4.70;;;2.50;;
54983;SDS011;40884;53.562;9.940;2022-08-01T05:19:53;2.60;;;2.40;;
54983;SDS011;40884;53.562;9.940;2022-08-01T05:20:53;2.50;;;2.30;;
54983;SDS011;40884;53.562;9.940;2022-08-01T05:21:54;5.00;;;2.83;;
54983;SDS011;40884;53.562;9.940;2022-08-01T05:22:54;3.33;;;2.40;;
54983;SDS011;40884;53.562;9.940;2022-08-01T05:23:54;4.17;;;2.80;;
54983;SDS011;40884;53.562;9.940;2022-08-01T05:24:54;4.50;;;2.93;;
54983;SDS011;40884;53.562;9.940;2022-08-01T05:25:54;3.07;;;2.80;;
54983;SDS011;40884;53.562;9.940;2022-08-01T05:26:57;3.00;;;2.80;;
54983;SDS011;40884;53.562;9.940;2022-08-01T05:27:57;3.93;;;3.07;;
54983;SDS011;40884;53.562;9.940;2022-08-01T05:28:57;3.33;;;2.27;;
54983;SDS011;40884;53.562;9.940;2022-08-01T05:29:57;3.60;;;3.20;;
54983;SDS011;40884;53.562;9.940;2022-08-01T05:30:57;3.43;;;2.90;;
54983;SDS011;40884;53.562;9.940;2022-08-01T05:31:58;3.87;;;2.80;;
54983;SDS011;40884;53.562;9.940;2022-08-01T05:32:58;2.83;;;2.53;;
54983;SDS011;40884;53.562;9.940;2022-08-01T05:33:58;4.57;;;3.73;;
54983;SDS011;40884;53.562;9.940;2022-08-01T05:34:58;4.70;;;4.27;;
54983;SDS011;40884;53.562;9.940;2022-08-01T05:35:58;4.23;;;3.93;;
54983;SDS011;40884;53.562;9.940;2022-08-01T05:36:58;4.20;;;3.90;;
54983;SDS011;40884;53.562;9.940;2022-08-01T05:37:58;4.47;;;4.17;;
54983;SDS011;40884;53.562;9.940;2022-08-01T05:38:58;4.67;;;4.27;;
54983;SDS011;40884;53.562;9.940;2022-08-01T05:39:58;4.90;;;4.50;;
54983;SDS011;40884;53.562;9.940;2022-08-01T05:40:59;5.00;;;4.57;;
54983;SDS011;40884;53.562;9.940;2022-08-01T05:41:59;5.57;;;5.17;;
54983;SDS011;40884;53.562;9.940;2022-08-01T05:42:59;5.63;;;5.10;;
54983;SDS011;40884;53.562;9.940;2022-08-01T05:43:59;5.80;;;5.23;;
54983;SDS011;40884;53.562;9.940;2022-08-01T05:44:59;5.87;;;5.37;;
54983;SDS011;40884;53.562;9.940;2022-08-01T05:45:59;6.10;;;5.60;;
54983;SDS011;40884;53.562;9.940;2022-08-01T05:47:00;6.50;;;5.90;;
54983;SDS011;40884;53.562;9.940;2022-08-01T05:48:00;6.87;;;6.27;;
54983;SDS011;40884;53.562;9.940;2022-08-01T05:49:00;6.60;;;6.13;;
54983;SDS011;40884;53.562;9.940;2022-08-01T05:50:01;6.90;;;6.40;;
54983;SDS011;40884;53.562;9.940;2022-08-01T05:51:01;7.23;;;6.43;;
54983;SDS011;40884;53.562;9.940;2022-08-01T05:52:01;6.43;;;5.90;;
54983;SDS011;40884;53.562;9.940;2022-08-01T05:53:01;7.50;;;6.67;;
54983;SDS011;40884;53.562;9.940;2022-08-01T05:54:01;7.17;;;6.47;;
54983;SDS011;40884;53.562;9.940;2022-08-01T05:55:02;6.13;;;5.63;;
54983;SDS011;40884;53.562;9.940;2022-08-01T05:56:02;7.43;;;6.73;;
54983;SDS011;40884;53.562;9.940;2022-08-01T05:57:02;7.20;;;6.60;;
54983;SDS011;40884;53.562;9.940;2022-08-01T05:58:02;7.20;;;6.60;;
54983;SDS011;40884;53.562;9.940;2022-08-01T05:59:02;7.47;;;6.43;;
54983;SDS011;40884;53.562;9.940;2022-08-01T06:00:03;7.23;;;6.63;;
54983;SDS011;40884;53.562;9.940;2022-08-01T06:01:11;7.50;;;6.60;;
54983;SDS011;40884;53.562;9.940;2022-08-01T06:02:12;7.10;;;6.50;;
54983;SDS011;40884;53.562;9.940;2022-08-01T06:03:12;7.83;;;6.63;;
54983;SDS011;40884;53.562;9.940;2022-08-01T06:04:12;8.20;;;7.30;;
54983;SDS011;40884;53.562;9.940;2022-08-01T06:05:12;7.77;;;6.83;;
54983;SDS011;40884;53.562;9.940;2022-08-01T06:06:12;7.47;;;6.67;;
54983;SDS011;40884;53.562;9.940;2022-08-01T06:07:12;8.10;;;7.17;;
54983;SDS011;40884;53.562;9.940;2022-08-01T06:08:12;9.53;;;7.47;;
54983;SDS011;40884;53.562;9.940;2022-08-01T06:09:13;7.43;;;6.73;;
54983;SDS011;40884;53.562;9.940;2022-08-01T06:10:13;8.57;;;7.23;;
54983;SDS011;40884;53.562;9.940;2022-08-01T06:11:13;9.33;;;8.43;;